createdAt,value
2022-09-09T00:03:56.589Z,100092.59
2022-09-09T00:09:22.665Z,100097.09
2022-09-09T00:14:33.563Z,100006.34
2022-09-09T00:19:46.910Z,100073.94
2022-09-09T00:24:57.625Z,100102.25
2022-09-09T00:30:23.724Z,100102.13
2022-09-09T00:35:30.089Z,100035.00
2022-09-09T00:40:35.243Z,100037.69
2022-09-09T00:45:43.631Z,100118.59
2022-09-09T00:50:59.585Z,100070.31
2022-09-09T00:56:14.263Z,100125.50
2022-09-09T01:01:16.508Z,100073.53
2022-09-09T01:06:30.008Z,100135.78
2022-09-09T01:11:36.266Z,100134.13
2022-09-09T01:16:39.452Z,100092.56
2022-09-09T01:21:58.420Z,100075.94
2022-09-09T01:27:04.035Z,100109.38
2022-09-09T01:32:42.619Z,100139.53
2022-09-09T01:37:46.508Z,100102.13
2022-09-09T01:42:48.827Z,100112.50
2022-09-09T01:47:52.215Z,100100.00
2022-09-09T01:53:17.182Z,100146.63
2022-09-09T01:58:26.328Z,100173.91
2022-09-09T02:03:34.909Z,100170.28
2022-09-09T02:08:53.572Z,100180.63
2022-09-09T02:13:59.360Z,100175.22
2022-09-09T02:19:15.775Z,100161.63
2022-09-09T02:24:34.389Z,100175.50
2022-09-09T02:29:55.362Z,100169.13
2022-09-09T02:35:14.529Z,100140.84
2022-09-09T02:40:18.341Z,100110.59
2022-09-09T02:45:55.149Z,100202.16
2022-09-09T02:51:04.106Z,100203.44
2022-09-09T02:56:15.970Z,100155.69
2022-09-09T03:01:41.229Z,100163.94
2022-09-09T03:06:45.647Z,100178.72
2022-09-09T03:11:56.224Z,100161.59
2022-09-09T03:17:01.987Z,100186.88
2022-09-09T03:22:07.683Z,100192.75
2022-09-09T03:27:12.327Z,100193.38
2022-09-09T03:32:18.715Z,100200.31
2022-09-09T03:37:21.318Z,100165.47
2022-09-09T03:42:25.683Z,100219.97
2022-09-09T03:47:31.277Z,100211.00
2022-09-09T03:52:40.390Z,100246.03
2022-09-09T03:57:44.815Z,100246.31
2022-09-09T04:02:48.544Z,100237.28
2022-09-09T04:07:52.762Z,100198.38
2022-09-09T04:12:58.085Z,100168.59
2022-09-09T04:18:00.355Z,100193.38
2022-09-09T04:23:02.900Z,100217.25
2022-09-09T04:28:05.125Z,100189.16
2022-09-09T04:33:08.219Z,100244.75
2022-09-09T04:38:10.595Z,100254.97
2022-09-09T04:43:14.562Z,100215.50
2022-09-09T04:48:19.265Z,100208.59
2022-09-09T04:53:22.023Z,100248.31
2022-09-09T04:58:24.835Z,100186.88
2022-09-09T05:03:27.839Z,100200.81
2022-09-09T05:08:30.378Z,100216.31
2022-09-09T05:13:33.292Z,100199.00
2022-09-09T05:18:36.062Z,100190.38
2022-09-09T05:23:38.791Z,100260.09
2022-09-09T05:28:41.500Z,100277.16
2022-09-09T05:33:47.122Z,100229.78
2022-09-09T05:38:51.129Z,100245.06
2022-09-09T05:43:54.486Z,100151.97
2022-09-09T05:48:59.093Z,100269.34
2022-09-09T05:54:05.296Z,100278.66
2022-09-09T05:59:13.752Z,100241.72
2022-09-09T06:04:19.269Z,100301.88
2022-09-09T06:09:22.111Z,100273.13
2022-09-09T06:14:26.670Z,100225.72
2022-09-09T06:19:29.733Z,100320.25
2022-09-09T06:24:34.155Z,100294.22
2022-09-09T06:29:38.117Z,100272.38
2022-09-09T06:34:41.236Z,100294.56
2022-09-09T06:39:44.699Z,100286.91
2022-09-09T06:44:47.273Z,100231.56
2022-09-09T06:49:58.013Z,100336.63
2022-09-09T06:55:00.759Z,100309.53
2022-09-09T07:00:05.457Z,100297.84
2022-09-09T07:05:09.361Z,100299.84
2022-09-09T07:10:11.886Z,100305.75
2022-09-09T07:15:15.291Z,100327.22
2022-09-09T07:20:21.399Z,100317.81
2022-09-09T07:25:23.900Z,100288.81
2022-09-09T07:30:27.892Z,100280.31
2022-09-09T07:35:31.314Z,100315.78
2022-09-09T07:40:35.130Z,100308.09
2022-09-09T07:45:37.985Z,100328.34
2022-09-09T07:50:40.637Z,100380.06
2022-09-09T07:55:44.823Z,100326.31
2022-09-09T08:00:47.127Z,100350.91
2022-09-09T08:05:49.453Z,100253.56
2022-09-09T08:10:53.449Z,100304.59
2022-09-09T08:15:56.833Z,100328.44
2022-09-09T08:20:59.222Z,100350.47
2022-09-09T08:26:13.080Z,100384.28
2022-09-09T08:36:30.371Z,100390.03
2022-09-09T08:41:47.916Z,100388.66
2022-09-09T08:47:05.379Z,100398.28
2022-09-09T08:52:17.278Z,100354.25
2022-09-09T08:57:27.952Z,100280.22
2022-09-09T09:02:59.843Z,100397.31
2022-09-09T09:08:39.265Z,100406.09
2022-09-09T09:13:56.837Z,100340.16
2022-09-09T09:19:00.499Z,100418.28
2022-09-09T09:24:11.589Z,100352.47
2022-09-09T09:29:19.221Z,100408.88
2022-09-09T09:34:21.767Z,100342.09
2022-09-09T09:44:52.714Z,100355.28
2022-09-09T09:50:02.346Z,100317.53
2022-09-09T09:55:15.235Z,100413.44
2022-09-09T10:00:24.078Z,100355.47
2022-09-09T10:05:38.004Z,100367.13
2022-09-09T10:11:08.401Z,100406.03
2022-09-09T10:16:32.849Z,100409.56
2022-09-09T10:21:53.661Z,100377.88
2022-09-09T10:27:30.086Z,100402.56
2022-09-09T10:32:57.066Z,100418.38
2022-09-09T10:38:19.669Z,100414.13
2022-09-09T10:44:00.592Z,100401.13
2022-09-09T10:49:23.217Z,100423.03
2022-09-09T10:54:58.616Z,100386.97
2022-09-09T11:00:24.640Z,100377.09
2022-09-09T11:05:42.295Z,100426.41
2022-09-09T11:10:56.357Z,100425.53
2022-09-09T11:16:06.985Z,100412.34
2022-09-09T11:21:38.400Z,100397.56
2022-09-09T11:26:46.428Z,100374.91
2022-09-09T11:32:05.049Z,100355.03
2022-09-09T11:37:40.660Z,100413.13
2022-09-09T11:42:44.346Z,100412.22
2022-09-09T11:47:54.100Z,100396.41
2022-09-09T11:53:15.277Z,100417.50
2022-09-09T11:58:19.585Z,100358.47
2022-09-09T12:03:43.347Z,100412.19
2022-09-09T12:08:50.297Z,100346.28
2022-09-09T12:13:59.495Z,100373.56
2022-09-09T12:19:26.440Z,100403.63
2022-09-09T12:24:39.686Z,100388.78
2022-09-09T12:30:06.200Z,100388.94
2022-09-09T12:35:27.694Z,100348.81
2022-09-09T12:40:36.499Z,100363.78
2022-09-09T12:45:42.280Z,100368.19
2022-09-09T12:50:53.781Z,100356.88
2022-09-09T12:55:59.267Z,100378.84
2022-09-09T13:01:04.438Z,100363.13
2022-09-09T13:06:18.339Z,100365.75
2022-09-09T13:11:44.548Z,100346.59
2022-09-09T13:17:07.690Z,100349.25
2022-09-09T13:22:26.184Z,100367.69
2022-09-09T13:27:35.489Z,100389.63
2022-09-09T13:32:39.236Z,100344.81
2022-09-09T13:37:42.471Z,100337.84
2022-09-09T13:42:45.947Z,100345.81
2022-09-09T13:47:53.365Z,100354.59
2022-09-09T13:53:00.491Z,100344.94
2022-09-09T13:58:06.273Z,100385.28
2022-09-09T14:03:09.269Z,100332.59
2022-09-09T14:08:18.088Z,100383.41
2022-09-09T14:13:22.309Z,100277.97
2022-09-09T14:18:26.539Z,100362.13
2022-09-09T14:23:28.880Z,100354.22
2022-09-09T14:33:54.021Z,100334.81
2022-09-09T14:38:56.221Z,100344.47
2022-09-09T14:43:58.449Z,100349.69
2022-09-09T14:49:00.977Z,100295.25
2022-09-09T14:54:03.700Z,100353.19
2022-09-09T14:59:05.972Z,100348.78
2022-09-09T15:04:08.939Z,100318.00
2022-09-09T15:09:14.328Z,100300.38
2022-09-09T15:14:16.768Z,100255.56
2022-09-09T15:19:18.966Z,100310.78
2022-09-09T15:24:23.234Z,100342.19
2022-09-09T15:29:26.257Z,100351.72
2022-09-09T15:34:29.980Z,100342.88
2022-09-09T15:39:39.832Z,100361.13
2022-09-09T15:44:43.577Z,100342.50
2022-09-09T15:49:45.990Z,100364.28
2022-09-09T15:54:48.191Z,100412.41
2022-09-09T15:59:50.464Z,100365.63
2022-09-09T16:04:52.985Z,100344.22
2022-09-09T16:09:55.593Z,100389.75
2022-09-09T16:15:00.870Z,100399.25
2022-09-09T16:20:03.886Z,100423.56
2022-09-09T16:25:06.910Z,100375.78
2022-09-09T16:30:10.038Z,100365.84
2022-09-09T16:35:12.821Z,100391.88
2022-09-09T16:40:16.778Z,100360.81
2022-09-09T16:45:22.743Z,100390.56
2022-09-09T16:50:25.192Z,100395.44
2022-09-09T16:55:27.918Z,100429.63
2022-09-09T17:00:30.166Z,100410.91
2022-09-09T17:05:33.950Z,100402.75
2022-09-09T17:10:41.865Z,100418.41
2022-09-09T17:15:44.333Z,100431.31
2022-09-09T17:20:47.451Z,100439.72
2022-09-09T17:25:59.226Z,100447.38
2022-09-09T17:31:03.030Z,100398.69
2022-09-09T17:36:32.954Z,100465.72
2022-09-09T17:41:37.774Z,100409.69
2022-09-09T17:46:41.897Z,100460.50
2022-09-09T17:51:45.995Z,100479.59
2022-09-09T17:56:49.373Z,100471.38
2022-09-09T18:01:51.957Z,100454.44
2022-09-09T18:06:54.760Z,100448.91
2022-09-09T18:11:58.942Z,100416.91
2022-09-09T18:17:03.001Z,100437.00
2022-09-09T18:22:07.057Z,100473.09
2022-09-09T18:27:10.660Z,100420.91
2022-09-09T18:32:17.599Z,100457.78
2022-09-09T18:37:24.618Z,100437.91
2022-09-09T18:42:27.881Z,100459.81
2022-09-09T18:47:32.879Z,100430.44
2022-09-09T18:52:35.372Z,100436.31
2022-09-09T18:57:39.032Z,100477.50
2022-09-09T19:02:43.174Z,100419.28
2022-09-09T19:07:45.463Z,100423.41
2022-09-09T19:12:47.839Z,100415.13
2022-09-09T19:17:51.320Z,100452.09
2022-09-09T19:22:58.727Z,100463.25
2022-09-09T19:28:01.983Z,100399.63
2022-09-09T19:33:05.637Z,100483.91
2022-09-09T19:38:11.841Z,100465.31
2022-09-09T19:43:14.164Z,100468.53
2022-09-09T19:48:17.241Z,100504.53
2022-09-09T19:53:21.805Z,100470.75
2022-09-09T19:58:24.110Z,100489.13
2022-09-09T20:03:26.399Z,100478.28
2022-09-09T20:08:28.663Z,100507.84
2022-09-09T20:13:32.469Z,100458.16
2022-09-09T20:18:37.281Z,100465.75
2022-09-09T20:23:40.385Z,100477.91
2022-09-09T20:28:42.743Z,100446.72
2022-09-09T20:33:45.846Z,100490.66
2022-09-09T20:38:58.056Z,100491.25
2022-09-09T20:44:05.980Z,100533.56
2022-09-09T20:49:12.764Z,100487.28
2022-09-09T20:54:25.139Z,100530.75
2022-09-09T20:59:29.868Z,100486.03
2022-09-09T21:04:32.118Z,100515.00
2022-09-09T21:09:34.285Z,100485.75
2022-09-09T21:14:36.495Z,100469.50
2022-09-09T21:19:38.652Z,100503.94
2022-09-09T21:24:41.181Z,100538.97
2022-09-09T21:29:43.381Z,100522.84
2022-09-09T21:34:48.585Z,100524.44
2022-09-09T21:39:50.958Z,100527.47
2022-09-09T21:44:53.096Z,100537.94
2022-09-09T21:49:55.258Z,100536.94
2022-09-09T21:54:58.154Z,100518.97
2022-09-09T22:00:00.457Z,100515.91
2022-09-09T22:05:02.758Z,100484.16
2022-09-09T22:10:05.756Z,100498.03
2022-09-09T22:15:08.172Z,100519.03
2022-09-09T22:20:12.385Z,100487.94
2022-09-09T22:25:14.959Z,100529.63
2022-09-09T22:30:17.280Z,100536.34
2022-09-09T22:35:19.554Z,100505.09
2022-09-09T22:40:22.425Z,100522.59
2022-09-09T22:45:24.723Z,100528.78
2022-09-09T22:50:28.161Z,100543.38
2022-09-09T22:55:30.817Z,100425.16
2022-09-09T23:00:32.981Z,100484.53
2022-09-09T23:05:38.725Z,100518.63
2022-09-09T23:10:43.313Z,100528.34
2022-09-09T23:15:48.043Z,100518.22
2022-09-09T23:21:00.735Z,100550.06
2022-09-09T23:26:05.523Z,100563.22
2022-09-09T23:31:13.236Z,100524.81
2022-09-09T23:36:17.285Z,100542.63
2022-09-09T23:41:21.281Z,100473.28
2022-09-09T23:46:28.814Z,100553.63
2022-09-09T23:51:32.305Z,100518.09
2022-09-09T23:56:37.964Z,100419.69
